Terminal Aerodrome Forecast
Issued by NWS

Current Version | Previous Version | Text Only | Print | Product List | Glossary Off
Versions: 1 2 3 4 5 6 7 8 9 10 11 12 13 14 15 16 17 18 19 20 21 22 23

717
FTUS41 KRLX 241730
TAFCKB
TAF
KCKB 241730Z 2418/2518 25009G17KT P6SM FEW040
     FM242200 27008KT P6SM SCT150
     FM250800 25003KT P6SM SCT040=

USA.gov is the U.S. government's official web portal to all federal, state and local government web resources and services.